📊 Raw Sensor Data
Showing records 39251 to 39275 of 84,943 total
| ID | Distance (ft) | Battery V | Battery A | Int Temp (°F) | Int Humid (%) | Ext Temp (°F) | Solar V | RSSI | SNR | Time Stamp |
|---|---|---|---|---|---|---|---|---|---|---|
| 45705 | 15.7 | 3.91 | 0 | 75 | 42 | 74 | 5.10 | -66 | 8 | 07/08/2025 10:45 AM |
| 45704 | 15.6 | 3.91 | 9 | 73 | 42 | 72 | 5.10 | -65 | 8 | 07/08/2025 10:30 AM |
| 45703 | 15.6 | 3.91 | 9 | 72 | 43 | 75 | 5.10 | -66 | 8 | 07/08/2025 10:15 AM |
| 45702 | 15.6 | 3.91 | 9 | 71 | 43 | 70 | 5.10 | -68 | 8 | 07/08/2025 10:00 AM |
| 45701 | 15.6 | 3.91 | 9 | 70 | 43 | 70 | 5.10 | -66 | 8 | 07/08/2025 09:45 AM |
| 45700 | 15.6 | 3.91 | 10 | 69 | 43 | 69 | 5.10 | -67 | 8 | 07/08/2025 09:30 AM |
| 45699 | 15.6 | 3.91 | 10 | 69 | 43 | 70 | 5.10 | -68 | 8 | 07/08/2025 09:15 AM |
| 45698 | 15.6 | 3.91 | 10 | 68 | 44 | 71 | 5.10 | -67 | 8 | 07/08/2025 09:00 AM |
| 45697 | 15.6 | 3.95 | 10 | 67 | 44 | 69 | 5.10 | -68 | 8 | 07/08/2025 08:45 AM |
| 45696 | 15.6 | 3.91 | 10 | 66 | 43 | 67 | 5.10 | -68 | 8 | 07/08/2025 08:30 AM |
| 45695 | 15.6 | 4.12 | 111 | 65 | 43 | 68 | 4.50 | -70 | 8 | 07/08/2025 08:15 AM |
| 45694 | 15.6 | 4.07 | 69 | 64 | 43 | 66 | 4.50 | -68 | 8 | 07/08/2025 08:00 AM |
| 45693 | 15.6 | 3.98 | 57 | 63 | 43 | 66 | 4.50 | -67 | 8 | 07/08/2025 07:45 AM |
| 45692 | 15.5 | 3.92 | 19 | 61 | 42 | 66 | 4.50 | -69 | 8 | 07/08/2025 07:30 AM |
| 45691 | 15.5 | 3.88 | 12 | 60 | 42 | 64 | 4.50 | -67 | 8 | 07/08/2025 07:15 AM |
| 45690 | 15.5 | 3.91 | 6 | 59 | 42 | 62 | 4.50 | -68 | 8 | 07/08/2025 07:00 AM |
| 45689 | 15.4 | 3.90 | 0 | 57 | 42 | 61 | 4.50 | -69 | 7 | 07/08/2025 06:45 AM |
| 45688 | 15.4 | 3.90 | 0 | 56 | 42 | 60 | 4.50 | -69 | 8 | 07/08/2025 06:30 AM |
| 45687 | 15.3 | 3.89 | 0 | 54 | 43 | 58 | 4.50 | -68 | 7 | 07/08/2025 06:15 AM |
| 45686 | 15.3 | 3.88 | -9 | 53 | 43 | 55 | 4.50 | -68 | 8 | 07/08/2025 06:00 AM |
| 45685 | 15.3 | 3.82 | -9 | 53 | 43 | 54 | 1.60 | -68 | 8 | 07/08/2025 05:45 AM |
| 45684 | 15.3 | 3.83 | -5 | 53 | 43 | 54 | 0.40 | -67 | 8 | 07/08/2025 05:30 AM |
| 45683 | 15.3 | 3.83 | -5 | 53 | 43 | 54 | 0.10 | -66 | 8 | 07/08/2025 05:15 AM |
| 45682 | 15.3 | 3.89 | -5 | 53 | 43 | 54 | 0.10 | -66 | 8 | 07/08/2025 05:00 AM |
| 45681 | 15.3 | 3.89 | -5 | 53 | 43 | 54 | 0.00 | -66 | 8 | 07/08/2025 04:45 AM |